x

North Equatorial One- 470 Nm East Of Martinique (41040) Wave Buoy

11:50am - Tue 23rd Sep 2014 All times are UTC.

  • Sig Wave height 4.6ft
  • Swell Direction
  • Peak Period 8s
  • Average Period 5s
  • Wind
    16mph, 18mph gusts
  • Sea Temp 83°f
  • Air Temp 82°f
  • Sea Pressure 1014.4mb

More Historic Weather Station data

Upgrade to MSW Pro to gain access to the past 30 days of data for over 8000 Wavebouys and Weather Stations around the globe.

Join Pro

Comparision Forecast

View Surf forecast
   
Tue 09/23 11:50am 4.5ft 8s 5s 16 18 mph 1014.4mb 83f 82f
10:50am 4.5ft 8s 5s 18 20 mph 1013.7mb 83f 82f
9:50am 4.5ft 7s 5s 16 18 mph 1013.1mb 83f 82f
7:50am 4ft 7s 5s 16 18 mph 1012.1mb 83f 82f
6:50am 4ft 8s 5s 13
mph
1012mb 83f 81f
5:50am 4ft 8s 5s 16 18 mph 1012.3mb 83f 82f
4:50am 4.5ft 6s 5s 11 13 mph 1012.8mb 83f 81f
3:50am 4.5ft 8s 5s 11 13 mph 1013.6mb 83f 80f
2:50am 4.5ft 8s 5s 13 16 mph 1013.9mb 83f 82f
1:50am 4.5ft 8s 5s 13 16 mph 1014.2mb 83f 82f
12:50am 4.5ft 6s 5s 13 16 mph 1014.3mb 83f 82f
Mon 09/22 11:50pm 4ft 7s 5s 11 13 mph 1014.2mb 83f 82f
10:50pm 4.5ft 8s 6s 13 16 mph 1013.7mb 83f 82f
8:50pm 4ft 9s 6s 4 7 mph 1013.1mb 84f 81f
7:50pm 4ft 6s 5s 4
mph
1012.7mb 84f 81f
6:50pm 4.5ft 8s 5s 4 7 mph 1012.6mb 84f 80f
5:50pm 4.5ft 7s 5s 13 18 mph 1012.8mb 84f 81f
4:50pm 4.5ft 8s 5s 11 13 mph 1013.5mb 84f 82f
3:50pm 4.5ft 6s 5s 11 16 mph 1014.5mb 83f 82f
2:50pm 4.5ft 5s 5s 11 13 mph 1015.2mb 83f 82f
1:50pm 4.5ft 8s 5s 18 20 mph 1015.4mb 83f 81f
12:50pm 4.5ft 8s 5s 16 18 mph 1015.3mb 83f 82f
11:50am 4.5ft 8s 5s 13 16 mph 1015mb 83f 82f
10:50am 4.5ft 8s 5s 16 18 mph 1014.2mb 83f 81f
9:50am 4.5ft 8s 5s 9 11 mph 1013.7mb 83f 81f
8:50am 4.5ft 8s 5s 13
mph
1013.2mb 83f 81f
7:50am 4.5ft 8s 5s 16 18 mph 1012.7mb 83f 81f
6:50am 4.5ft 8s 5s 13 16 mph 1012.9mb 83f 82f
5:50am 4.5ft 8s 5s 16 18 mph 1013mb 83f 82f
4:50am 4.5ft 7s 5s 16 18 mph 1013.8mb 83f 82f
3:50am 4.5ft 8s 5s 18 20 mph 1014.7mb 83f 82f
2:50am 4.5ft 9s 5s 16 18 mph 1015.5mb 83f 82f
1:50am 4.5ft 9s 5s 16 18 mph 1015.7mb 83f 82f
12:50am 4.5ft 9s 5s 16 18 mph 1015.7mb 83f 83f
Sun 09/21 11:50pm 4.5ft 8s 5s 16 18 mph 1015.4mb 83f 83f
10:50pm 4.5ft 9s 5s 18 20 mph 1015mb 83f 83f
9:50pm 4.5ft 6s 6s 16 18 mph 1014.5mb 83f 82f
8:50pm 4.5ft 6s 5s 13 16 mph 1014.4mb 83f 81f
7:50pm 4.5ft 8s 6s 13 16 mph 1013.9mb 83f 82f
6:50pm 4.5ft 7s 5s 13 16 mph 1014.1mb 84f 83f
5:50pm 4ft 7s 5s 11 13 mph 1014.5mb 84f 81f
4:50pm 4.5ft 8s 6s 13 16 mph 1014.9mb 84f 82f
3:50pm 4.5ft 7s 5s 11 13 mph 1015.8mb 83f 82f
2:50pm 4.5ft 8s 5s 13 16 mph 1016mb 83f 82f
1:50pm 4.5ft 8s 5s 13 16 mph 1016.2mb 83f 82f
12:50pm 4.5ft 8s 5s 13 16 mph 1016.2mb 83f 82f
11:50am 4.5ft 8s 5s 11 16 mph 1015.7mb 83f 82f
10:50am 4.5ft 8s 5s 7 9 mph 1015.4mb 83f 81f
9:50am 4.5ft 8s 5s 7 9 mph 1014.7mb 83f 79f
8:50am 4.5ft 8s 5s 9 11 mph 1014.3mb 83f 80f
7:50am 4.5ft 7s 5s 13 16 mph 1013.7mb 83f 79f
6:50am 4.5ft 8s 5s 16 20 mph 1013.9mb 83f 79f
5:50am 4ft 8s 5s 9 11 mph 1014.2mb 83f 78f
4:50am 4ft 8s 5s 18 29 mph 1014.5mb 83f 78f
3:50am 4.5ft 7s 5s 16 20 mph 1014.7mb 83f 82f
2:50am 4ft 8s 5s 9 11 mph 1015.8mb 83f 79f
1:50am 4.5ft 7s 5s 13 16 mph 1015.8mb 83f 81f
12:50am 4.5ft 8s 5s 11 13 mph 1015.7mb 83f 82f
Sat 09/20 11:50pm 4.5ft 9s 5s 13 16 mph 1015.6mb 83f 82f
10:50pm 4.5ft 8s 5s 13 16 mph 1014.7mb 83f 82f
9:50pm 4.5ft 8s 5s 13 16 mph 1013.7mb 83f 82f
8:50pm 4.5ft 8s 5s 16 18 mph 1013.2mb 83f 82f
7:50pm 4ft 7s 5s 18 20 mph 1013mb 83f 81f
6:50pm 4ft 8s 6s 16 20 mph 1012.6mb 83f 80f
5:50pm 4.5ft 8s 6s 16 22 mph 1012.7mb 83f 78f
4:50pm 4.5ft 9s 6s 13 18 mph 1013.2mb 83f 82f
3:50pm 4.5ft 8s 6s 11 13 mph 1013.3mb 83f 81f
2:50pm 4.5ft 7s 6s 11 13 mph 1014.8mb 83f 80f
1:50pm 4.5ft 9s 6s 7 9 mph 1015.2mb 83f 81f
12:50pm 4.5ft 7s 6s 13 16 mph 1014.8mb 83f 81f
11:50am 4.5ft 9s 6s 4 7 mph 1014.4mb 83f 82f
10:50am 4.5ft 8s 6s 2 4 mph 1013.9mb 83f 81f
9:50am 4.5ft 7s 6s 4
mph
1013.5mb 83f 81f
8:50am 4.5ft 9s 6s 7 9 mph 1012.7mb 83f 80f
7:50am 4.5ft 7s 6s 13 16 mph 1012.4mb 83f 80f
6:50am 4.5ft 9s 6s 7 9 mph 1012.2mb 83f 81f
5:50am 4.5ft 9s 6s 7 9 mph 1012.1mb 83f 81f
4:50am 5ft 9s 6s 9 11 mph 1012.7mb 83f 81f
3:50am 5ft 10s 6s 7 9 mph 1013.4mb 83f 82f
2:50am 5ft 10s 6s 9 11 mph 1013.8mb 83f 81f
1:50am 5ft 9s 6s 11 13 mph 1014.3mb 83f 81f
12:50am 5ft 9s 6s 11 13 mph 1014.7mb 83f 78f
Fri 09/19 11:50pm 5ft 10s 6s 13 18 mph 1014.1mb 83f 80f
10:50pm 5ft 10s 6s 11 16 mph 1013.3mb 83f 82f
9:50pm 5ft 7s 6s 16 18 mph 1012.8mb 83f 82f
8:50pm 5.5ft 10s 6s 7 11 mph 1012.5mb 83f 82f
7:50pm 5.5ft 9s 6s 9 11 mph 1012.1mb 83f 82f
6:50pm 5.5ft 8s 6s 13 20 mph 1012.1mb 83f 80f
5:50pm 6ft 11s 6s 13 18 mph 1012mb 83f 83f
4:50pm 5.5ft 11s 6s 13 16 mph 1012.6mb 83f 82f
3:50pm 5ft 10s 6s 13 16 mph 1013.2mb 83f 82f
2:50pm 5.5ft 11s 6s 16 18 mph 1013.9mb 83f 82f
1:50pm 5.5ft 9s 6s 16 20 mph 1014.3mb 83f 82f